• Join FlightAware (Why Join?)
  • Login
  • US Flag 
05:31AM EDT


 

Airport Tracker/Info


-or-


 

Live Flight TrackerFlight Track Log ✈ CCA1581 ✈ 27-May-2013 ✈ ZBAA / PEK - ZSCN / KHN

Flight Track Log - Related Links

Times and Time Zones

All times are in EDT time to prevent confusion due to time zone crossing. See the CCA1581 flight status page for this flight to view local times or setup timezone preferences in your user account.

Time Position Orientation Groundspeed Altitude Reporting Facility
EDT Latitude Longitude Course Direction KTS MPH feet Rate Location/Type
07:33AM 39.7596 116.5621 183° South  Level Estimated
07:34AM 39.6528 116.5547 183° South  Level Estimated
07:35AM 39.5460 116.5473 183° South  Level Estimated
07:36AM 39.4391 116.5399 183° South  Level Estimated
07:37AM 39.3323 116.5325 183° South  Level Estimated
07:38AM 39.2254 116.5252 183° South  Level Estimated
07:39AM 39.1186 116.5179 183° South  Level Estimated
07:40AM 39.0118 116.5106 183° South  Level Estimated
07:41AM 38.9049 116.5033 183° South  Level Estimated
07:42AM 38.7981 116.4960 183° South  Level Estimated
07:43AM 38.6912 116.4888 183° South  Level Estimated
07:44AM 38.5844 116.4816 183° South  Level Estimated
07:45AM 38.4776 116.4744 183° South  Level Estimated
07:46AM 38.3707 116.4672 183° South  Level Estimated
07:47AM 38.2639 116.4601 183° South  Level Estimated
07:48AM 38.1570 116.4530 183° South  Level Estimated
07:49AM 38.0502 116.4459 183° South  Level Estimated
07:50AM 37.9434 116.4388 183° South  Level Estimated
07:51AM 37.8365 116.4317 183° South  Level Estimated
07:52AM 37.7297 116.4247 183° South  Level Estimated
07:53AM 37.6228 116.4177 183° South  Level Estimated
07:54AM 37.5160 116.4107 183° South  Level Estimated
07:55AM 37.4092 116.4037 183° South  Level Estimated
07:56AM 37.3023 116.3968 183° South  Level Estimated
07:57AM 37.1955 116.3898 183° South  Level Estimated
07:58AM 37.0886 116.3829 183° South  Level Estimated
07:59AM 36.9818 116.3760 183° South  Level Estimated
08:00AM 36.8750 116.3691 183° South  Level Estimated
08:01AM 36.7681 116.3623 183° South  Level Estimated
08:02AM 36.6613 116.3554 183° South  Level Estimated
08:03AM 36.5544 116.3486 183° South  Level Estimated
08:04AM 36.4476 116.3418 183° South  Level Estimated
08:05AM 36.3407 116.3350 183° South  Level Estimated
08:06AM 36.2338 116.3282 183° South  Level Estimated
08:07AM 36.1270 116.3214 183° South  Level Estimated
08:08AM 36.0201 116.3147 183° South  Level Estimated
08:09AM 35.9133 116.3080 183° South  Level Estimated
08:10AM 35.8064 116.3013 183° South  Level Estimated
08:11AM 35.6996 116.2946 183° South  Level Estimated
08:12AM 35.5928 116.2880 183° South  Level Estimated
08:13AM 35.4859 116.2813 183° South  Level Estimated
08:14AM 35.3791 116.2747 183° South  Level Estimated
08:15AM 35.2722 116.2681 183° South  Level Estimated
08:16AM 35.1654 116.2615 183° South  Level Estimated
08:17AM 35.0585 116.2549 183° South  Level Estimated
08:18AM 34.9516 116.2484 183° South  Level Estimated
08:19AM 34.8448 116.2418 183° South  Level Estimated
08:20AM 34.7379 116.2353 183° South  Level Estimated
08:21AM 34.6311 116.2288 183° South  Level Estimated
08:22AM 34.5243 116.2223 183° South  Level Estimated
08:23AM 34.4174 116.2159 183° South  Level Estimated
08:24AM 34.3106 116.2094 183° South  Level Estimated
08:25AM 34.2037 116.2029 183° South  Level Estimated
08:26AM 34.0969 116.1965 183° South  Level Estimated
08:27AM 33.9900 116.1901 183° South  Level Estimated
08:28AM 33.8831 116.1837 183° South  Level Estimated
08:29AM 33.7763 116.1774 183° South  Level Estimated
08:30AM 33.6694 116.1710 183° South  Level Estimated
08:31AM 33.5625 116.1647 183° South  Level Estimated
08:32AM 33.4557 116.1583 183° South  Level Estimated
08:33AM 33.3488 116.1520 183° South  Level Estimated
08:34AM 33.2420 116.1457 183° South  Level Estimated
08:35AM 33.1351 116.1394 183° South  Level Estimated
08:36AM 33.0283 116.1332 183° South  Level Estimated
08:37AM 32.9214 116.1269 183° South  Level Estimated
08:38AM 32.8145 116.1207 183° South  Level Estimated
08:39AM 32.7077 116.1145 183° South  Level Estimated
08:40AM 32.6008 116.1083 183° South  Level Estimated
08:41AM 32.4939 116.1021 183° South  Level Estimated
08:42AM 32.3871 116.0959 183° South  Level Estimated
08:43AM 32.2802 116.0897 183° South  Level Estimated
08:44AM 32.1734 116.0836 183° South  Level Estimated
08:45AM 32.0665 116.0775 183° South  Level Estimated
08:46AM 31.9597 116.0713 183° South  Level Estimated
08:47AM 31.8528 116.0652 183° South  Level Estimated
08:48AM 31.7459 116.0592 183° South  Level Estimated
08:49AM 31.6391 116.0531 183° South  Level Estimated
08:50AM 31.5322 116.0470 183° South  Level Estimated
08:51AM 31.4254 116.0410 183° South  Level Estimated
08:52AM 31.3185 116.0349 183° South  Level Estimated
08:53AM 31.2116 116.0289 183° South  Level Estimated
08:54AM 31.1048 116.0229 183° South  Level Estimated
08:55AM 30.9979 116.0169 183° South  Level Estimated
08:56AM 30.8911 116.0109 183° South  Level Estimated
08:57AM 30.7842 116.0050 183° South  Level Estimated
08:58AM 30.6773 115.9990 183° South  Level Estimated
08:59AM 30.5705 115.9931 183° South  Level Estimated
09:00AM 30.4636 115.9871 183° South  Level Estimated
09:01AM 30.3567 115.9812 183° South  Level Estimated
09:02AM 30.2499 115.9753 183° South  Level Estimated
09:03AM 30.1430 115.9694 183° South  Level Estimated
09:04AM 30.0361 115.9636 183° South  Level Estimated
09:05AM 29.9293 115.9577 183° South  Level Estimated
09:06AM 29.8224 115.9519 183° South  Level Estimated
09:07AM 29.7155 115.9460 183° South  Level Estimated
09:08AM 29.6087 115.9402 183° South  Level Estimated
09:09AM 29.5018 115.9344 183° South  Level Estimated
09:10AM 29.3949 115.9286 183° South  Level Estimated
09:11AM 29.2880 115.9228 183° South  Level Estimated
09:12AM 29.1812 115.9170 183° South  Level Estimated
09:13AM 29.0743 115.9113 183° South  Level Estimated
09:14AM 28.9674 115.9055 183° South  Level Estimated
09:15AM 28.8650 115.9000 183° South  Level Estimated
09:16AM 28.8650 115.9000 North  Level Estimated
09:17AM 28.8650 115.9000 North  Level Estimated
09:18AM 28.8650 115.9000 North  Level Estimated
09:19AM 28.8650 115.9000 North  Level Estimated
09:20AM 28.8650 115.9000 North  Level Estimated